Time;durP1;ratioP1;P1;durP2;ratioP2;P2;SDS_P1;SDS_P2;PMS_P1;PMS_P2;Temp;Humidity;BMP_temperature;BMP_pressure;BME280_temperature;BME280_humidity;BME280_pressure;Samples;Min_cycle;Max_cycle;Signal;HPM_P1;HPM_P2
2023/11/24 00:01:02;;;;;;;32.90;4.20;;;6.80;99.90;;;;;;5059592;28;20017;-71
2023/11/24 00:03:28;;;;;;;25.25;3.92;;;6.70;99.90;;;;;;5061589;28;20088;-69
2023/11/24 00:05:53;;;;;;;26.33;4.15;;;6.70;99.90;;;;;;5061422;28;20029;-70
2023/11/24 00:08:19;;;;;;;34.70;4.00;;;6.70;99.90;;;;;;5061488;28;20025;-72
2023/11/24 00:10:45;;;;;;;25.90;4.07;;;6.70;99.90;;;;;;5061295;28;20025;-70
2023/11/24 00:13:11;;;;;;;29.63;3.95;;;6.80;99.90;;;;;;5061406;28;20148;-72
2023/11/24 00:15:37;;;;;;;33.13;3.97;;;6.70;99.90;;;;;;5060302;28;20040;-70
2023/11/24 00:18:03;;;;;;;29.83;4.07;;;6.70;99.90;;;;;;5061417;28;20036;-71
2023/11/24 00:20:29;;;;;;;27.83;3.10;;;6.80;99.90;;;;;;5060797;28;20029;-70
2023/11/24 00:22:55;;;;;;;34.00;4.25;;;6.70;99.90;;;;;;5061393;28;20363;-72
2023/11/24 00:25:23;;;;;;;30.63;4.10;;;6.70;99.90;;;;;;5061336;28;20029;-70
2023/11/24 00:27:51;;;;;;;27.65;3.40;;;6.70;99.90;;;;;;5059691;28;20032;-72
2023/11/24 00:30:18;;;;;;;38.67;4.13;;;6.70;99.90;;;;;;5061525;28;20025;-70
2023/11/24 00:32:45;;;;;;;23.80;3.70;;;6.60;99.90;;;;;;5061555;28;20044;-72
2023/11/24 00:35:10;;;;;;;26.95;4.30;;;6.60;99.90;;;;;;5060928;28;20044;-70
2023/11/24 00:37:36;;;;;;;28.27;3.92;;;6.60;99.90;;;;;;5059800;28;20017;-72
2023/11/24 00:40:02;;;;;;;34.90;4.22;;;6.50;99.90;;;;;;5061268;28;20079;-71
2023/11/24 00:42:29;;;;;;;27.83;3.38;;;6.60;99.90;;;;;;5059152;28;20121;-72
2023/11/24 00:44:54;;;;;;;21.58;3.50;;;6.50;99.90;;;;;;5061321;28;20021;-72
2023/11/24 00:47:20;;;;;;;27.73;4.28;;;6.50;99.90;;;;;;5060553;28;20081;-72
2023/11/24 00:49:47;;;;;;;27.65;4.05;;;6.50;99.90;;;;;;5061117;28;20114;-69
2023/11/24 00:52:14;;;;;;;25.58;3.67;;;6.30;99.90;;;;;;5060846;28;20017;-72
2023/11/24 00:54:39;;;;;;;27.70;3.30;;;6.40;99.90;;;;;;5060602;28;20132;-73
2023/11/24 00:57:05;;;;;;;35.58;4.45;;;6.40;99.90;;;;;;5060914;28;20025;-71
2023/11/24 00:59:31;;;;;;;32.15;4.18;;;6.40;99.90;;;;;;5061011;28;20520;-72
2023/11/24 01:01:56;;;;;;;26.10;3.35;;;6.50;99.90;;;;;;5059879;28;20017;-73
2023/11/24 01:04:22;;;;;;;19.77;3.50;;;6.50;99.90;;;;;;5059171;28;20056;-68
2023/11/24 01:06:48;;;;;;;23.48;3.28;;;6.40;99.90;;;;;;5061053;28;20013;-71
2023/11/24 01:09:13;;;;;;;23.77;3.15;;;6.60;99.90;;;;;;5060878;28;20041;-73
2023/11/24 01:11:39;;;;;;;20.17;2.47;;;6.50;99.90;;;;;;5060413;28;20092;-72
2023/11/24 01:14:05;;;;;;;20.90;3.58;;;6.50;99.90;;;;;;5059423;28;20029;-71
2023/11/24 01:16:31;;;;;;;25.60;3.05;;;6.50;99.90;;;;;;5059524;28;20037;-70
2023/11/24 01:18:57;;;;;;;21.27;3.17;;;6.40;99.90;;;;;;5052473;28;20040;-73
2023/11/24 01:21:23;;;;;;;30.23;3.00;;;6.40;99.90;;;;;;5059585;28;20021;-72
2023/11/24 01:23:49;;;;;;;17.13;1.95;;;6.50;99.90;;;;;;5059459;28;20036;-71
2023/11/24 01:26:15;;;;;;;13.73;2.00;;;6.50;99.90;;;;;;5061206;28;20048;-73
2023/11/24 01:28:42;;;;;;;12.02;1.55;;;6.50;99.90;;;;;;5063669;28;20112;-74
2023/11/24 01:31:07;;;;;;;13.52;2.38;;;6.40;99.90;;;;;;5062141;28;20040;-71
2023/11/24 01:33:33;;;;;;;18.30;1.70;;;6.40;99.90;;;;;;5063459;28;20032;-71
2023/11/24 01:35:59;;;;;;;11.98;1.58;;;6.40;99.90;;;;;;5063634;28;20033;-72
2023/11/24 01:38:24;;;;;;;16.05;1.65;;;6.40;99.90;;;;;;5063276;28;20021;-72
2023/11/24 01:40:51;;;;;;;13.98;1.65;;;6.40;99.90;;;;;;5063489;28;20049;-74
2023/11/24 01:43:17;;;;;;;13.60;2.10;;;6.40;99.90;;;;;;5062518;28;20033;-72
2023/11/24 01:45:45;;;;;;;12.25;1.75;;;6.40;99.90;;;;;;5063049;28;20528;-74
2023/11/24 01:48:12;;;;;;;13.25;2.08;;;6.40;99.90;;;;;;5063381;28;20032;-74
2023/11/24 01:50:38;;;;;;;20.80;1.77;;;6.40;99.90;;;;;;5063086;28;20025;-72
2023/11/24 01:53:04;;;;;;;17.33;2.13;;;6.40;99.90;;;;;;5063388;28;20071;-74
2023/11/24 01:55:29;;;;;;;21.50;2.38;;;6.30;99.90;;;;;;5062465;28;20032;-73
2023/11/24 01:57:56;;;;;;;21.15;2.50;;;6.30;99.90;;;;;;5062853;28;20065;-73
2023/11/24 02:00:23;;;;;;;22.10;2.40;;;6.20;99.90;;;;;;5061526;28;20041;-73
2023/11/24 02:02:49;;;;;;;15.07;2.35;;;6.20;99.90;;;;;;5063347;28;20017;-71
2023/11/24 02:05:17;;;;;;;25.35;2.88;;;6.20;99.90;;;;;;5062203;28;20028;-73
2023/11/24 02:07:44;;;;;;;25.05;2.80;;;6.20;99.90;;;;;;5063273;28;20051;-74
2023/11/24 02:10:11;;;;;;;21.52;2.47;;;6.20;99.90;;;;;;5063856;28;20096;-74
2023/11/24 02:12:37;;;;;;;18.52;1.83;;;6.20;99.90;;;;;;5063020;28;20035;-73
2023/11/24 02:15:04;;;;;;;20.48;2.28;;;6.20;99.90;;;;;;5063420;28;20064;-68
2023/11/24 02:17:29;;;;;;;14.27;1.95;;;6.30;99.90;;;;;;5062926;28;20373;-72
2023/11/24 02:19:57;;;;;;;14.57;2.35;;;6.30;99.90;;;;;;5062863;28;20049;-71
2023/11/24 02:22:23;;;;;;;22.50;2.67;;;6.30;99.90;;;;;;5062956;28;20039;-72
2023/11/24 02:24:48;;;;;;;20.05;2.25;;;6.30;99.90;;;;;;5062147;28;20041;-71
2023/11/24 02:27:18;;;;;;;21.27;2.17;;;6.30;99.90;;;;;;5063280;28;20036;-71
2023/11/24 02:29:44;;;;;;;15.82;2.10;;;6.30;99.90;;;;;;5063095;28;20029;-72
2023/11/24 02:32:10;;;;;;;14.27;2.05;;;6.30;99.90;;;;;;5063196;28;20017;-70
2023/11/24 02:34:35;;;;;;;20.80;2.20;;;6.30;99.90;;;;;;5063042;28;20072;-70
2023/11/24 02:37:02;;;;;;;20.15;2.28;;;6.30;99.90;;;;;;5062684;28;20036;-73
2023/11/24 02:39:28;;;;;;;14.23;2.05;;;6.30;99.90;;;;;;5061844;28;20025;-71
2023/11/24 02:41:54;;;;;;;16.60;2.10;;;6.30;99.90;;;;;;5061743;28;20481;-73
2023/11/24 02:44:20;;;;;;;16.33;2.03;;;6.30;99.90;;;;;;5062975;28;20029;-71
2023/11/24 02:46:47;;;;;;;24.60;2.30;;;6.30;99.90;;;;;;5061671;28;20017;-72
2023/11/24 02:49:13;;;;;;;18.23;2.70;;;6.20;99.90;;;;;;5063052;28;20071;-72
2023/11/24 02:51:39;;;;;;;14.98;2.10;;;6.30;99.90;;;;;;5062809;28;20028;-68
2023/11/24 02:54:06;;;;;;;22.30;2.35;;;6.20;99.90;;;;;;5062328;28;20025;-73
2023/11/24 02:56:33;;;;;;;15.63;1.88;;;6.20;99.90;;;;;;5062737;28;20422;-70
2023/11/24 02:58:58;;;;;;;14.85;2.28;;;6.20;99.90;;;;;;5062444;28;20384;-69
2023/11/24 03:01:24;;;;;;;12.98;1.90;;;6.10;99.90;;;;;;5060894;28;20047;-72
2023/11/24 03:03:52;;;;;;;12.18;2.03;;;6.10;99.90;;;;;;5062641;28;20029;-71
2023/11/24 03:06:18;;;;;;;19.40;2.10;;;6.00;99.90;;;;;;5062465;28;20013;-70
2023/11/24 03:08:44;;;;;;;20.75;2.60;;;6.00;99.90;;;;;;5062648;28;20020;-71
2023/11/24 03:11:10;;;;;;;9.55;1.75;;;6.00;99.90;;;;;;5062700;28;20103;-69
2023/11/24 03:13:36;;;;;;;12.70;1.75;;;5.90;99.90;;;;;;5061894;28;20052;-71
2023/11/24 03:16:08;;;;;;;6.50;1.00;;;5.90;99.90;;;;;;5061707;28;20043;-70
2023/11/24 03:18:33;;;;;;;9.65;1.58;;;5.80;99.90;;;;;;5062235;28;20025;-69
2023/11/24 03:20:59;;;;;;;10.30;1.52;;;5.80;99.90;;;;;;5061901;28;20163;-73
2023/11/24 03:23:25;;;;;;;14.77;1.70;;;5.80;99.90;;;;;;5062125;28;20017;-71
2023/11/24 03:25:51;;;;;;;7.93;1.65;;;5.70;99.90;;;;;;5062157;28;20017;-73
2023/11/24 03:28:20;;;;;;;12.20;1.83;;;5.70;99.90;;;;;;5061750;28;20053;-72
2023/11/24 03:30:46;;;;;;;8.77;1.45;;;5.60;99.90;;;;;;5061853;28;20520;-71
2023/11/24 03:33:14;;;;;;;17.42;2.17;;;5.60;99.90;;;;;;5062144;28;20025;-71
2023/11/24 03:35:40;;;;;;;13.60;1.45;;;5.60;99.90;;;;;;5061515;28;20044;-71
2023/11/24 03:38:05;;;;;;;22.75;2.13;;;5.50;99.90;;;;;;5062156;28;20029;-71
2023/11/24 03:40:31;;;;;;;11.43;1.45;;;5.50;99.90;;;;;;5061665;28;20084;-69
2023/11/24 03:42:56;;;;;;;12.43;1.60;;;5.50;99.90;;;;;;5061663;28;20025;-70
2023/11/24 03:45:22;;;;;;;15.77;1.67;;;5.50;99.90;;;;;;5061930;28;20032;-69
2023/11/24 03:47:47;;;;;;;12.05;1.60;;;5.60;99.90;;;;;;5061717;28;20040;-73
2023/11/24 03:50:14;;;;;;;15.20;1.77;;;5.50;99.90;;;;;;5060183;28;20024;-72
2023/11/24 03:52:39;;;;;;;13.02;2.05;;;5.50;99.90;;;;;;5061593;28;20025;-68
2023/11/24 03:55:07;;;;;;;10.55;1.58;;;5.40;99.90;;;;;;5061315;28;20045;-70
2023/11/24 03:57:33;;;;;;;8.52;1.40;;;5.40;99.90;;;;;;5061186;28;20021;-72
2023/11/24 03:59:58;;;;;;;10.30;1.35;;;5.40;99.90;;;;;;5060405;28;20043;-71
2023/11/24 04:02:24;;;;;;;9.07;1.30;;;5.40;99.90;;;;;;5061323;28;20508;-72
2023/11/24 04:04:50;;;;;;;10.90;1.35;;;5.40;99.90;;;;;;5060751;28;20025;-69
2023/11/24 04:07:15;;;;;;;10.00;1.00;;;5.40;99.90;;;;;;5061789;28;20025;-70
2023/11/24 04:09:42;;;;;;;11.30;1.50;;;5.40;99.90;;;;;;5061400;28;20029;-70
2023/11/24 04:12:08;;;;;;;10.38;1.35;;;5.40;99.90;;;;;;5061291;28;20039;-72
2023/11/24 04:14:33;;;;;;;7.55;1.00;;;5.40;99.90;;;;;;5061180;28;20033;-68
2023/11/24 04:16:59;;;;;;;17.08;1.60;;;5.40;99.90;;;;;;5061108;28;20112;-71
2023/11/24 04:19:24;;;;;;;7.88;1.75;;;5.40;99.90;;;;;;5060032;28;20025;-68
2023/11/24 04:21:50;;;;;;;15.10;1.52;;;5.40;99.90;;;;;;5059428;28;20024;-72
2023/11/24 04:24:16;;;;;;;10.90;1.27;;;5.50;99.90;;;;;;5060642;28;20029;-72
2023/11/24 04:26:42;;;;;;;12.55;1.25;;;5.40;99.90;;;;;;5060812;28;20037;-72
2023/11/24 04:29:07;;;;;;;15.55;1.65;;;5.40;99.90;;;;;;5060902;28;20033;-71
2023/11/24 04:31:33;;;;;;;8.95;1.23;;;5.30;99.90;;;;;;5060144;28;20021;-72
2023/11/24 04:34:00;;;;;;;8.18;1.58;;;5.30;99.90;;;;;;5060778;28;20080;-72
2023/11/24 04:36:26;;;;;;;12.05;1.15;;;5.30;99.90;;;;;;5059234;28;20021;-72
2023/11/24 04:38:51;;;;;;;9.63;1.48;;;5.30;99.90;;;;;;5060268;28;20112;-69
2023/11/24 04:41:18;;;;;;;16.75;2.10;;;5.30;99.90;;;;;;5058719;28;20049;-70
2023/11/24 04:43:44;;;;;;;6.63;1.50;;;5.30;99.90;;;;;;5060715;28;20032;-70
2023/11/24 04:46:10;;;;;;;12.82;1.75;;;5.30;99.90;;;;;;5059807;28;20048;-70
2023/11/24 04:48:38;;;;;;;11.85;1.30;;;5.30;99.90;;;;;;5060548;28;20089;-73
2023/11/24 04:51:07;;;;;;;11.77;2.03;;;5.30;99.90;;;;;;5060552;28;20089;-69
2023/11/24 04:53:32;;;;;;;15.18;1.27;;;5.30;99.90;;;;;;5059041;28;20059;-73
2023/11/24 04:55:58;;;;;;;11.55;1.92;;;5.30;99.90;;;;;;5060594;28;20033;-73
2023/11/24 04:58:24;;;;;;;10.23;1.27;;;5.30;99.90;;;;;;5060322;28;20047;-75
2023/11/24 05:00:50;;;;;;;14.77;1.55;;;5.30;99.90;;;;;;5058870;28;20016;-71
2023/11/24 05:03:15;;;;;;;14.05;2.65;;;5.30;99.90;;;;;;5064333;28;20013;-72
2023/11/24 05:05:41;;;;;;;12.02;1.50;;;5.30;99.90;;;;;;5064589;28;20490;-71
2023/11/24 05:08:06;;;;;;;12.18;1.70;;;5.30;99.90;;;;;;5064120;28;20094;-72
2023/11/24 05:10:32;;;;;;;16.58;2.75;;;5.30;99.90;;;;;;5064163;28;20048;-72
2023/11/24 05:12:59;;;;;;;13.85;1.85;;;5.30;99.90;;;;;;5064019;28;20047;-71
2023/11/24 05:15:24;;;;;;;12.98;1.50;;;5.20;99.90;;;;;;5063564;28;20036;-75
2023/11/24 05:17:50;;;;;;;13.13;2.00;;;5.20;99.90;;;;;;5062787;28;20036;-72
2023/11/24 05:20:18;;;;;;;18.05;1.77;;;5.10;99.90;;;;;;5063269;28;20531;-72
2023/11/24 05:22:47;;;;;;;15.35;2.85;;;5.10;99.90;;;;;;5064243;28;20090;-71
2023/11/24 05:25:12;;;;;;;14.25;1.98;;;5.10;99.90;;;;;;5064015;28;20047;-72
2023/11/24 05:27:38;;;;;;;13.20;1.58;;;5.10;99.90;;;;;;5063678;28;20017;-71
2023/11/24 05:30:08;;;;;;;20.52;2.30;;;5.10;99.90;;;;;;5063520;28;20025;-72
2023/11/24 05:32:35;;;;;;;19.60;2.10;;;5.00;99.90;;;;;;5063530;28;20025;-74
2023/11/24 05:35:01;;;;;;;20.17;2.25;;;5.00;99.90;;;;;;5063490;28;20037;-72
2023/11/24 05:37:27;;;;;;;14.27;1.73;;;5.00;99.90;;;;;;5062607;28;20017;-74
2023/11/24 05:39:52;;;;;;;14.25;1.63;;;5.00;99.90;;;;;;5063829;28;20021;-72
2023/11/24 05:42:18;;;;;;;26.42;2.72;;;5.10;99.90;;;;;;5061918;28;20056;-74
2023/11/24 05:44:44;;;;;;;14.70;2.10;;;5.10;99.90;;;;;;5063867;28;20017;-71
2023/11/24 05:47:09;;;;;;;12.35;2.08;;;5.10;99.90;;;;;;5063707;28;20064;-72
2023/11/24 05:49:35;;;;;;;19.63;2.00;;;5.10;99.90;;;;;;5062027;28;20017;-75
2023/11/24 05:52:01;;;;;;;21.52;3.17;;;5.10;99.90;;;;;;5063690;28;21508;-71
2023/11/24 05:54:26;;;;;;;12.90;1.70;;;5.10;99.90;;;;;;5063010;28;20029;-72
2023/11/24 05:56:52;;;;;;;14.18;1.50;;;5.10;99.90;;;;;;5063306;28;20029;-73
2023/11/24 05:59:17;;;;;;;11.70;1.75;;;5.10;99.90;;;;;;5062187;28;20041;-74
2023/11/24 06:01:43;;;;;;;13.70;2.03;;;5.10;99.90;;;;;;5061796;28;20100;-71
2023/11/24 06:04:09;;;;;;;12.88;2.25;;;5.10;99.90;;;;;;5063229;28;20061;-67
2023/11/24 06:06:35;;;;;;;18.60;1.90;;;5.10;99.90;;;;;;5063126;28;20025;-72
2023/11/24 06:09:02;;;;;;;14.57;2.33;;;5.10;99.90;;;;;;5063101;28;20047;-72
2023/11/24 06:11:28;;;;;;;16.00;1.70;;;5.10;99.90;;;;;;5062434;28;20110;-71
2023/11/24 06:13:53;;;;;;;13.13;1.42;;;5.10;99.90;;;;;;5063143;28;20031;-71
2023/11/24 06:16:20;;;;;;;13.50;1.75;;;5.10;99.90;;;;;;5062635;28;20158;-74
2023/11/24 06:18:46;;;;;;;15.20;1.77;;;5.10;99.90;;;;;;5063177;28;20454;-70
2023/11/24 06:21:12;;;;;;;16.27;1.90;;;5.10;99.90;;;;;;5063148;28;20104;-73
2023/11/24 06:23:39;;;;;;;15.38;1.80;;;5.10;99.90;;;;;;5062758;28;20021;-70
2023/11/24 06:26:07;;;;;;;15.02;1.50;;;5.10;99.90;;;;;;5062316;28;20024;-71
2023/11/24 06:28:33;;;;;;;15.25;1.55;;;5.10;99.90;;;;;;5062796;28;20084;-75
2023/11/24 06:31:00;;;;;;;19.77;1.65;;;5.10;99.90;;;;;;5061051;28;20017;-69
2023/11/24 06:33:26;;;;;;;14.90;1.30;;;5.10;99.90;;;;;;5062710;28;20029;-70
2023/11/24 06:35:52;;;;;;;18.40;2.15;;;5.00;99.90;;;;;;5061318;28;20044;-74
2023/11/24 06:38:18;;;;;;;15.90;2.00;;;5.00;99.90;;;;;;5061797;28;20118;-74
2023/11/24 06:40:44;;;;;;;11.68;1.75;;;5.00;99.90;;;;;;5063153;28;20436;-71
2023/11/24 06:43:10;;;;;;;13.57;1.90;;;5.00;99.90;;;;;;5063088;28;20043;-74
2023/11/24 06:45:35;;;;;;;9.00;1.80;;;5.00;99.90;;;;;;5062141;28;20024;-72
2023/11/24 06:48:01;;;;;;;15.55;2.08;;;5.00;99.90;;;;;;5063063;28;20037;-76
2023/11/24 06:50:26;;;;;;;11.50;1.77;;;5.00;99.90;;;;;;5062831;28;20070;-75
2023/11/24 06:52:52;;;;;;;11.20;1.90;;;5.00;99.90;;;;;;5061141;28;20028;-73
2023/11/24 06:55:18;;;;;;;18.30;2.15;;;5.00;99.90;;;;;;5062852;28;20040;-73
2023/11/24 06:57:44;;;;;;;15.38;2.13;;;5.00;99.90;;;;;;5062906;28;20116;-74
2023/11/24 07:00:16;;;;;;;9.43;1.75;;;5.00;99.90;;;;;;5060495;28;20566;-74
2023/11/24 07:02:41;;;;;;;9.40;1.48;;;4.90;99.90;;;;;;5058303;28;21330;-73
2023/11/24 07:05:09;;;;;;;16.67;2.00;;;4.90;99.90;;;;;;5060570;28;20036;-71
2023/11/24 07:07:34;;;;;;;20.40;2.00;;;4.90;99.90;;;;;;5061060;28;20099;-73
2023/11/24 07:10:00;;;;;;;13.27;1.88;;;4.90;99.90;;;;;;5062428;28;20025;-71
2023/11/24 07:12:25;;;;;;;15.07;1.65;;;4.90;99.90;;;;;;5062257;28;20032;-72
2023/11/24 07:14:51;;;;;;;18.00;1.38;;;4.90;99.90;;;;;;5058431;28;20037;-72
2023/11/24 07:17:17;;;;;;;11.30;1.58;;;4.90;99.90;;;;;;5059555;28;20029;-72
2023/11/24 07:19:42;;;;;;;14.35;1.70;;;4.90;99.90;;;;;;5060613;28;20044;-75
2023/11/24 07:22:08;;;;;;;16.77;2.00;;;5.00;99.90;;;;;;5060285;28;20385;-71
2023/11/24 07:24:38;;;;;;;13.55;2.00;;;5.00;99.90;;;;;;5059726;28;20055;-72
2023/11/24 07:27:05;;;;;;;17.45;2.00;;;5.00;99.90;;;;;;5059919;28;20017;-72
2023/11/24 07:29:31;;;;;;;15.63;1.70;;;5.00;99.90;;;;;;5062050;28;20021;-74
2023/11/24 07:31:57;;;;;;;13.75;1.50;;;5.00;99.90;;;;;;5062183;28;20070;-72
2023/11/24 07:34:22;;;;;;;13.15;1.77;;;5.00;99.90;;;;;;5060122;28;20041;-70
2023/11/24 07:36:48;;;;;;;14.10;2.30;;;5.10;99.90;;;;;;5062182;28;20029;-73
2023/11/24 07:39:13;;;;;;;13.88;2.10;;;5.10;99.90;;;;;;5062248;28;20469;-71
2023/11/24 07:41:39;;;;;;;9.48;1.52;;;5.00;99.90;;;;;;5061115;28;20047;-77
2023/11/24 07:44:05;;;;;;;12.00;1.92;;;5.00;99.90;;;;;;5060727;28;20036;-74
2023/11/24 07:46:30;;;;;;;11.98;2.20;;;4.80;99.90;;;;;;5061655;28;20048;-71
2023/11/24 07:48:57;;;;;;;13.73;2.40;;;4.70;99.90;;;;;;5061619;28;20025;-74
2023/11/24 07:51:22;;;;;;;14.38;1.98;;;4.70;99.90;;;;;;5061812;28;20025;-75
2023/11/24 07:53:48;;;;;;;21.92;2.30;;;4.60;99.90;;;;;;5060181;28;20032;-69
2023/11/24 07:56:14;;;;;;;15.43;2.42;;;4.60;99.90;;;;;;5061670;28;20083;-70
2023/11/24 07:58:40;;;;;;;16.33;2.50;;;4.60;99.90;;;;;;5061580;28;20037;-71
2023/11/24 08:01:05;;;;;;;16.58;2.05;;;4.70;99.90;;;;;;5059977;28;20116;-72
2023/11/24 08:03:32;;;;;;;22.13;2.50;;;4.60;99.90;;;;;;5061271;28;20086;-71
2023/11/24 08:06:06;;;;;;;11.68;1.60;;;4.70;99.90;;;;;;5061343;28;20025;-71
2023/11/24 08:08:32;;;;;;;17.05;4.03;;;4.70;99.90;;;;;;5061260;28;20029;-70
2023/11/24 08:10:57;;;;;;;12.40;2.38;;;4.70;99.90;;;;;;5061564;28;20039;-76
2023/11/24 08:13:23;;;;;;;15.70;1.83;;;4.80;99.90;;;;;;5059474;28;20025;-71
2023/11/24 08:15:48;;;;;;;15.00;1.73;;;4.70;99.90;;;;;;5061017;28;20045;-72
2023/11/24 08:18:14;;;;;;;12.52;1.98;;;4.70;99.90;;;;;;5061555;28;20028;-71
2023/11/24 08:20:41;;;;;;;10.95;1.23;;;4.70;99.90;;;;;;5060845;28;20021;-70
2023/11/24 08:23:06;;;;;;;7.47;1.15;;;4.60;99.90;;;;;;5060945;28;20025;-72
2023/11/24 08:25:32;;;;;;;7.85;1.20;;;4.50;99.90;;;;;;5061309;28;20785;-74
2023/11/24 08:27:58;;;;;;;22.75;1.63;;;4.40;99.90;;;;;;5061048;28;20040;-70
2023/11/24 08:30:23;;;;;;;11.90;1.25;;;4.40;99.90;;;;;;5060340;28;20033;-69
2023/11/24 08:32:49;;;;;;;15.45;1.65;;;4.30;99.90;;;;;;5061360;28;20025;-74
2023/11/24 08:35:15;;;;;;;7.93;0.82;;;4.20;99.90;;;;;;5061234;28;20469;-72
2023/11/24 08:37:41;;;;;;;9.30;0.88;;;4.20;99.90;;;;;;5064188;28;20035;-73
2023/11/24 08:40:11;;;;;;;7.55;0.80;;;4.20;99.90;;;;;;5065292;28;20047;-72
2023/11/24 08:42:38;;;;;;;9.50;0.93;;;4.20;99.90;;;;;;5064857;28;20120;-73
2023/11/24 08:45:06;;;;;;;5.72;0.80;;;4.30;99.90;;;;;;5064576;28;20044;-72
2023/11/24 08:47:31;;;;;;;14.95;1.33;;;4.30;99.90;;;;;;5064731;28;20033;-71
2023/11/24 08:49:57;;;;;;;15.25;1.92;;;4.40;99.90;;;;;;5065142;28;20021;-71
2023/11/24 08:52:22;;;;;;;12.57;1.60;;;4.50;99.90;;;;;;5064597;28;20500;-70
2023/11/24 08:54:49;;;;;;;29.00;2.25;;;4.60;99.90;;;;;;5063779;28;20041;-71
2023/11/24 08:57:16;;;;;;;21.75;1.85;;;4.50;99.90;;;;;;5065043;28;20421;-72
2023/11/24 08:59:42;;;;;;;16.38;1.98;;;4.50;99.90;;;;;;5064436;28;20508;-68
2023/11/24 09:02:08;;;;;;;14.82;2.15;;;4.40;99.90;;;;;;5064944;28;20029;-72
2023/11/24 09:04:34;;;;;;;14.73;1.85;;;4.40;99.90;;;;;;5064618;28;20027;-70
2023/11/24 09:07:00;;;;;;;14.25;1.77;;;4.40;99.90;;;;;;5064707;28;20055;-76
2023/11/24 09:09:27;;;;;;;15.13;1.45;;;4.50;99.90;;;;;;5064781;28;20020;-71
2023/11/24 09:11:53;;;;;;;16.13;1.73;;;4.50;99.90;;;;;;5064219;28;20025;-74
2023/11/24 09:14:18;;;;;;;10.57;2.03;;;4.50;99.90;;;;;;5064203;28;20531;-77
2023/11/24 09:16:44;;;;;;;20.15;2.00;;;4.50;99.90;;;;;;5059560;28;20029;-77
2023/11/24 09:19:11;;;;;;;15.40;1.88;;;4.50;99.90;;;;;;5061780;28;20080;-72
2023/11/24 09:21:37;;;;;;;13.80;1.65;;;4.60;99.90;;;;;;5062243;28;20063;-73
2023/11/24 09:24:03;;;;;;;13.80;1.85;;;4.60;99.90;;;;;;5061309;28;20389;-74
2023/11/24 09:26:29;;;;;;;19.20;2.67;;;4.50;99.90;;;;;;5061035;28;20080;-74
2023/11/24 09:28:54;;;;;;;14.93;2.40;;;4.60;99.90;;;;;;5063287;28;20021;-71
2023/11/24 09:31:21;;;;;;;16.63;2.80;;;4.60;99.90;;;;;;5063808;28;20108;-76
2023/11/24 09:33:47;;;;;;;14.43;1.85;;;4.60;99.90;;;;;;5064047;28;20013;-70
2023/11/24 09:36:14;;;;;;;9.30;1.65;;;4.60;99.90;;;;;;5063884;28;20036;-73
2023/11/24 09:38:39;;;;;;;23.25;2.33;;;4.70;99.90;;;;;;5061876;28;20092;-73
2023/11/24 09:41:11;;;;;;;21.17;2.13;;;4.70;99.90;;;;;;5062746;28;20072;-72
2023/11/24 09:43:37;;;;;;;13.55;1.67;;;4.70;99.90;;;;;;5063798;28;20055;-71
2023/11/24 09:46:07;;;;;;;9.43;1.70;;;4.80;99.90;;;;;;5062814;28;20025;-69
2023/11/24 09:48:33;;;;;;;11.63;2.20;;;5.00;99.90;;;;;;5063012;28;20489;-71
2023/11/24 09:51:05;;;;;;;16.30;2.00;;;5.20;99.90;;;;;;5063280;28;20021;-72
2023/11/24 09:53:35;;;;;;;15.57;1.88;;;5.50;99.90;;;;;;5063667;28;20032;-73
2023/11/24 09:56:02;;;;;;;18.63;2.10;;;5.50;99.90;;;;;;5063234;28;20040;-72
2023/11/24 09:58:32;;;;;;;14.80;1.92;;;5.40;99.90;;;;;;5063653;28;20036;-76
2023/11/24 10:01:18;;;;;;;13.25;1.45;;;5.30;99.90;;;;;;5062573;28;20112;-71
2023/11/24 10:03:50;;;;;;;19.35;2.47;;;5.40;99.90;;;;;;5063705;28;20025;-74
2023/11/24 10:06:16;;;;;;;17.23;2.70;;;5.60;99.90;;;;;;5061516;28;20037;-71
2023/11/24 10:08:43;;;;;;;17.75;2.53;;;5.90;99.90;;;;;;5061877;28;20116;-74
2023/11/24 10:11:14;;;;;;;11.07;1.70;;;6.30;99.90;;;;;;5062988;28;20029;-72
2023/11/24 10:13:45;;;;;;;15.85;1.95;;;6.50;99.90;;;;;;5063477;28;20025;-74
2023/11/24 10:16:11;;;;;;;17.70;2.05;;;6.40;99.90;;;;;;5063020;28;20041;-71
2023/11/24 10:18:38;;;;;;;18.73;1.65;;;6.20;99.90;;;;;;5061905;28;20359;-75
2023/11/24 10:21:11;;;;;;;13.93;1.80;;;5.90;99.90;;;;;;5061618;28;20025;-76
2023/11/24 10:23:39;;;;;;;18.60;1.73;;;5.60;99.90;;;;;;5061858;28;20021;-76
2023/11/24 10:26:13;;;;;;;14.60;2.30;;;5.40;99.90;;;;;;5060549;28;20029;-73
2023/11/24 10:28:39;;;;;;;;;;;5.20;99.90;;;;;;5063921;28;20378;-73
2023/11/24 10:31:07;;;;;;;13.95;2.10;;;5.10;99.90;;;;;;5062244;28;19915;-76
2023/11/24 10:33:33;;;;;;;21.92;1.98;;;5.10;99.90;;;;;;5063104;28;20033;-74
2023/11/24 10:35:59;;;;;;;22.23;2.33;;;4.90;99.90;;;;;;5060456;28;20051;-76
2023/11/24 10:38:31;;;;;;;15.07;1.52;;;4.80;99.90;;;;;;5060820;28;20417;-79
2023/11/24 10:40:58;;;;;;;22.15;2.00;;;4.70;99.90;;;;;;5061348;28;20150;-76
2023/11/24 10:43:26;;;;;;;13.77;2.10;;;4.60;99.90;;;;;;5057933;28;20068;-78
2023/11/24 10:45:53;;;;;;;18.23;2.13;;;4.50;99.90;;;;;;5060024;28;20033;-75
2023/11/24 10:48:31;;;;;;;12.23;1.70;;;4.40;99.90;;;;;;5062930;28;20027;-74
2023/11/24 10:51:12;;;;;;;12.85;1.75;;;4.40;99.90;;;;;;5061183;28;20044;-70
2023/11/24 10:53:48;;;;;;;18.33;1.40;;;4.30;99.90;;;;;;5062277;28;20119;-74
2023/11/24 10:56:16;;;;;;;18.95;2.15;;;4.30;99.90;;;;;;5062741;28;20769;-70
2023/11/24 10:58:47;;;;;;;10.35;1.08;;;4.40;99.90;;;;;;5061773;28;20075;-71
2023/11/24 11:01:16;;;;;;;20.63;1.52;;;4.40;99.90;;;;;;5063375;28;20474;-69
2023/11/24 11:03:44;;;;;;;14.73;2.03;;;4.50;99.90;;;;;;5062143;28;20406;-73
2023/11/24 11:06:16;;;;;;;8.70;1.17;;;4.50;99.90;;;;;;5062740;28;20025;-70
2023/11/24 11:08:56;;;;;;;12.13;1.45;;;4.60;99.90;;;;;;5062435;28;20067;-75
2023/11/24 11:11:49;;;;;;;21.65;2.13;;;4.70;99.90;;;;;;5061983;28;20381;-70
2023/11/24 11:14:17;;;;;;;16.58;1.55;;;4.70;99.90;;;;;;5062443;28;20045;-74
2023/11/24 11:16:44;;;;;;;20.65;2.17;;;4.80;99.90;;;;;;5062285;28;20164;-75
2023/11/24 11:19:30;;;;;;;11.07;1.52;;;4.80;99.90;;;;;;5062597;28;20051;-73
2023/11/24 11:21:59;;;;;;;16.13;2.00;;;4.80;99.90;;;;;;5061022;28;20093;-75
2023/11/24 11:24:28;;;;;;;12.50;1.40;;;4.90;99.90;;;;;;5061736;28;20051;-73
2023/11/24 11:26:54;;;;;;;12.65;1.45;;;5.00;99.90;;;;;;5061459;28;20025;-74
2023/11/24 11:29:26;;;;;;;9.55;1.67;;;5.20;99.90;;;;;;5062285;28;20025;-71
2023/11/24 11:31:53;;;;;;;11.93;1.95;;;5.50;99.90;;;;;;5061880;28;20021;-72
2023/11/24 11:34:26;;;;;;;9.73;1.70;;;5.90;99.90;;;;;;5060687;28;20033;-73
2023/11/24 11:37:11;;;;;;;8.02;1.48;;;6.40;99.90;;;;;;5061196;28;20031;-72
2023/11/24 11:39:44;;;;;;;16.27;2.30;;;6.50;99.90;;;;;;5059071;28;20028;-73
2023/11/24 11:42:10;;;;;;;9.32;1.70;;;6.50;99.90;;;;;;5058174;28;20049;-73
2023/11/24 11:44:46;;;;;;;8.68;1.30;;;6.60;99.90;;;;;;5060529;28;20084;-72
2023/11/24 11:47:20;;;;;;;13.63;1.48;;;6.60;99.90;;;;;;5061366;28;20041;-77
2023/11/24 11:50:00;;;;;;;9.53;1.47;;;6.50;99.90;;;;;;5062420;28;20023;-73
2023/11/24 11:52:27;;;;;;;8.32;1.23;;;6.40;99.90;;;;;;5061078;28;20079;-71
2023/11/24 11:54:55;;;;;;;12.60;1.45;;;6.40;99.90;;;;;;5061516;28;20033;-70
2023/11/24 11:57:21;;;;;;;9.70;1.45;;;6.30;99.90;;;;;;5060366;28;20017;-73
2023/11/24 11:59:48;;;;;;;11.93;1.70;;;6.30;99.90;;;;;;5058905;28;20027;-73
2023/11/24 12:02:21;;;;;;;18.17;1.77;;;6.10;99.90;;;;;;5061725;28;20020;-73
2023/11/24 12:04:48;;;;;;;16.08;1.65;;;6.00;99.90;;;;;;5061226;28;20016;-71
2023/11/24 12:07:15;;;;;;;11.05;1.77;;;5.90;99.90;;;;;;5061007;28;20051;-72
2023/11/24 12:09:41;;;;;;;9.05;1.65;;;6.00;99.90;;;;;;5061725;28;20029;-76
2023/11/24 12:12:10;;;;;;;10.45;1.88;;;6.20;99.90;;;;;;5061385;28;20029;-73
2023/11/24 12:14:41;;;;;;;8.20;1.50;;;6.40;99.90;;;;;;5060435;28;20082;-73
2023/11/24 12:17:07;;;;;;;9.00;1.60;;;6.60;99.90;;;;;;5059928;28;20136;-74
2023/11/24 12:19:33;;;;;;;11.85;1.58;;;6.80;99.90;;;;;;5060923;28;20060;-71
2023/11/24 12:22:02;;;;;;;16.08;2.00;;;7.00;99.90;;;;;;5061061;28;20029;-72
2023/11/24 12:24:29;;;;;;;12.95;1.60;;;6.80;99.90;;;;;;5061296;28;20032;-73
2023/11/24 12:26:56;;;;;;;16.83;2.20;;;6.50;99.90;;;;;;5061013;28;20045;-73
2023/11/24 12:29:28;;;;;;;20.75;2.45;;;6.30;99.90;;;;;;5061210;28;20017;-76
2023/11/24 12:31:54;;;;;;;15.20;2.40;;;6.10;99.90;;;;;;5060873;28;20036;-71
2023/11/24 12:34:22;;;;;;;18.05;2.28;;;6.20;99.90;;;;;;5060805;28;20501;-73
2023/11/24 12:36:50;;;;;;;15.88;2.53;;;6.40;99.90;;;;;;5061173;28;20056;-71
2023/11/24 12:39:16;;;;;;;16.85;2.25;;;6.60;99.90;;;;;;5061130;28;20067;-75
2023/11/24 12:41:43;;;;;;;14.82;2.08;;;6.70;99.90;;;;;;5060759;28;20056;-71
2023/11/24 12:44:10;;;;;;;17.85;2.20;;;6.70;99.90;;;;;;5058890;28;20021;-72
2023/11/24 12:46:36;;;;;;;13.23;2.20;;;6.50;99.90;;;;;;5057400;28;20492;-71